sensor_id;sensor_type;location;lat;lon;timestamp;temperature;humidity
34640;DHT22;22600;48.186;11.526;2022-07-22T00:01:25;26.30;59.80
34640;DHT22;22600;48.186;11.526;2022-07-22T00:03:51;26.30;59.80
34640;DHT22;22600;48.186;11.526;2022-07-22T00:06:16;26.30;59.70
34640;DHT22;22600;48.186;11.526;2022-07-22T00:08:42;26.20;59.50
34640;DHT22;22600;48.186;11.526;2022-07-22T00:11:07;26.30;59.60
34640;DHT22;22600;48.186;11.526;2022-07-22T00:13:33;26.30;59.50
34640;DHT22;22600;48.186;11.526;2022-07-22T00:15:59;26.30;59.60
34640;DHT22;22600;48.186;11.526;2022-07-22T00:18:25;26.30;59.50
34640;DHT22;22600;48.186;11.526;2022-07-22T00:20:50;26.30;59.40
34640;DHT22;22600;48.186;11.526;2022-07-22T00:23:16;26.30;59.30
34640;DHT22;22600;48.186;11.526;2022-07-22T00:25:42;26.20;59.30
34640;DHT22;22600;48.186;11.526;2022-07-22T00:28:07;26.10;59.30
34640;DHT22;22600;48.186;11.526;2022-07-22T00:30:33;26.30;59.50
34640;DHT22;22600;48.186;11.526;2022-07-22T00:32:59;26.20;60.00
34640;DHT22;22600;48.186;11.526;2022-07-22T00:35:24;26.30;59.40
34640;DHT22;22600;48.186;11.526;2022-07-22T00:37:50;26.30;59.40
34640;DHT22;22600;48.186;11.526;2022-07-22T00:40:15;26.30;59.30
34640;DHT22;22600;48.186;11.526;2022-07-22T00:42:41;26.30;59.20
34640;DHT22;22600;48.186;11.526;2022-07-22T00:45:07;26.20;59.10
34640;DHT22;22600;48.186;11.526;2022-07-22T00:47:33;26.20;59.10
34640;DHT22;22600;48.186;11.526;2022-07-22T00:49:59;26.20;59.10
34640;DHT22;22600;48.186;11.526;2022-07-22T00:52:25;26.30;59.20
34640;DHT22;22600;48.186;11.526;2022-07-22T00:54:51;26.30;59.20
34640;DHT22;22600;48.186;11.526;2022-07-22T00:57:17;26.20;59.10
34640;DHT22;22600;48.186;11.526;2022-07-22T00:59:43;26.30;59.10
34640;DHT22;22600;48.186;11.526;2022-07-22T01:02:09;26.30;59.70
34640;DHT22;22600;48.186;11.526;2022-07-22T01:04:35;26.20;59.10
34640;DHT22;22600;48.186;11.526;2022-07-22T01:07:01;26.20;59.00
34640;DHT22;22600;48.186;11.526;2022-07-22T01:09:26;26.20;59.00
34640;DHT22;22600;48.186;11.526;2022-07-22T01:11:52;26.20;59.00
34640;DHT22;22600;48.186;11.526;2022-07-22T01:14:17;26.30;59.10
34640;DHT22;22600;48.186;11.526;2022-07-22T01:16:43;26.20;59.00
34640;DHT22;22600;48.186;11.526;2022-07-22T01:19:09;26.20;59.00
34640;DHT22;22600;48.186;11.526;2022-07-22T01:21:35;26.20;59.00
34640;DHT22;22600;48.186;11.526;2022-07-22T01:24:02;26.20;58.90
34640;DHT22;22600;48.186;11.526;2022-07-22T01:26:28;26.20;59.00
34640;DHT22;22600;48.186;11.526;2022-07-22T01:28:53;26.20;58.90
34640;DHT22;22600;48.186;11.526;2022-07-22T01:31:19;26.20;58.90
34640;DHT22;22600;48.186;11.526;2022-07-22T01:33:44;26.20;58.90
34640;DHT22;22600;48.186;11.526;2022-07-22T01:36:10;26.20;58.80
34640;DHT22;22600;48.186;11.526;2022-07-22T01:38:36;26.20;58.90
34640;DHT22;22600;48.186;11.526;2022-07-22T01:41:02;26.20;58.80
34640;DHT22;22600;48.186;11.526;2022-07-22T01:43:28;26.20;58.80
34640;DHT22;22600;48.186;11.526;2022-07-22T01:45:53;26.20;58.80
34640;DHT22;22600;48.186;11.526;2022-07-22T01:48:20;26.10;58.80
34640;DHT22;22600;48.186;11.526;2022-07-22T01:50:46;26.10;58.80
34640;DHT22;22600;48.186;11.526;2022-07-22T01:53:12;26.20;58.80
34640;DHT22;22600;48.186;11.526;2022-07-22T01:55:39;26.10;58.70
34640;DHT22;22600;48.186;11.526;2022-07-22T01:58:04;26.10;58.70
34640;DHT22;22600;48.186;11.526;2022-07-22T02:00:31;26.10;58.70
34640;DHT22;22600;48.186;11.526;2022-07-22T02:02:57;26.10;58.70
34640;DHT22;22600;48.186;11.526;2022-07-22T02:05:22;26.10;58.70
34640;DHT22;22600;48.186;11.526;2022-07-22T02:07:48;26.10;58.60
34640;DHT22;22600;48.186;11.526;2022-07-22T02:10:14;26.10;58.60
34640;DHT22;22600;48.186;11.526;2022-07-22T02:12:39;26.10;58.60
34640;DHT22;22600;48.186;11.526;2022-07-22T02:15:05;26.10;58.60
34640;DHT22;22600;48.186;11.526;2022-07-22T02:17:33;26.10;58.50
34640;DHT22;22600;48.186;11.526;2022-07-22T02:19:59;26.10;58.50
34640;DHT22;22600;48.186;11.526;2022-07-22T02:22:24;26.10;58.50
34640;DHT22;22600;48.186;11.526;2022-07-22T02:24:50;26.10;58.40
34640;DHT22;22600;48.186;11.526;2022-07-22T02:27:15;26.10;58.40
34640;DHT22;22600;48.186;11.526;2022-07-22T02:29:41;26.10;57.90
34640;DHT22;22600;48.186;11.526;2022-07-22T02:32:07;26.10;58.40
34640;DHT22;22600;48.186;11.526;2022-07-22T02:34:32;26.10;58.40
34640;DHT22;22600;48.186;11.526;2022-07-22T02:36:58;26.10;58.30
34640;DHT22;22600;48.186;11.526;2022-07-22T02:39:24;26.10;58.30
34640;DHT22;22600;48.186;11.526;2022-07-22T02:41:49;26.10;58.30
34640;DHT22;22600;48.186;11.526;2022-07-22T02:44:15;26.10;58.20
34640;DHT22;22600;48.186;11.526;2022-07-22T02:46:41;26.10;58.20
34640;DHT22;22600;48.186;11.526;2022-07-22T02:49:06;26.10;58.30
34640;DHT22;22600;48.186;11.526;2022-07-22T02:51:32;26.00;58.20
34640;DHT22;22600;48.186;11.526;2022-07-22T02:53:57;26.10;58.30
34640;DHT22;22600;48.186;11.526;2022-07-22T02:56:23;26.10;58.30
34640;DHT22;22600;48.186;11.526;2022-07-22T02:58:49;26.10;58.20
34640;DHT22;22600;48.186;11.526;2022-07-22T03:01:17;26.10;58.20
34640;DHT22;22600;48.186;11.526;2022-07-22T03:03:44;26.10;58.10
34640;DHT22;22600;48.186;11.526;2022-07-22T03:06:09;26.10;58.10
34640;DHT22;22600;48.186;11.526;2022-07-22T03:08:36;26.10;58.10
34640;DHT22;22600;48.186;11.526;2022-07-22T03:11:02;26.00;58.00
34640;DHT22;22600;48.186;11.526;2022-07-22T03:13:27;26.00;57.90
34640;DHT22;22600;48.186;11.526;2022-07-22T03:15:53;26.00;57.90
34640;DHT22;22600;48.186;11.526;2022-07-22T03:18:19;26.00;57.90
34640;DHT22;22600;48.186;11.526;2022-07-22T03:20:44;26.00;57.90
34640;DHT22;22600;48.186;11.526;2022-07-22T03:23:10;26.00;57.90
34640;DHT22;22600;48.186;11.526;2022-07-22T03:25:35;26.00;57.80
34640;DHT22;22600;48.186;11.526;2022-07-22T03:28:01;26.00;57.80
34640;DHT22;22600;48.186;11.526;2022-07-22T03:30:27;26.00;57.80
34640;DHT22;22600;48.186;11.526;2022-07-22T03:32:52;26.00;57.80
34640;DHT22;22600;48.186;11.526;2022-07-22T03:35:18;26.00;57.80
34640;DHT22;22600;48.186;11.526;2022-07-22T03:37:44;26.00;57.90
34640;DHT22;22600;48.186;11.526;2022-07-22T03:40:10;26.00;57.90
34640;DHT22;22600;48.186;11.526;2022-07-22T03:42:36;26.00;57.90
34640;DHT22;22600;48.186;11.526;2022-07-22T03:45:02;26.00;57.90
34640;DHT22;22600;48.186;11.526;2022-07-22T03:47:28;26.00;57.90
34640;DHT22;22600;48.186;11.526;2022-07-22T03:49:53;26.00;57.90
34640;DHT22;22600;48.186;11.526;2022-07-22T03:52:19;25.90;57.80
34640;DHT22;22600;48.186;11.526;2022-07-22T03:54:45;25.90;57.90
34640;DHT22;22600;48.186;11.526;2022-07-22T03:57:11;26.00;57.90
34640;DHT22;22600;48.186;11.526;2022-07-22T03:59:37;26.00;58.00
34640;DHT22;22600;48.186;11.526;2022-07-22T04:02:03;26.00;58.00
34640;DHT22;22600;48.186;11.526;2022-07-22T04:04:28;26.00;58.00
34640;DHT22;22600;48.186;11.526;2022-07-22T04:06:54;26.00;57.90
34640;DHT22;22600;48.186;11.526;2022-07-22T04:09:20;25.90;57.90
34640;DHT22;22600;48.186;11.526;2022-07-22T04:11:46;25.90;57.90
34640;DHT22;22600;48.186;11.526;2022-07-22T04:14:12;25.90;57.90
34640;DHT22;22600;48.186;11.526;2022-07-22T04:16:37;25.90;57.80
34640;DHT22;22600;48.186;11.526;2022-07-22T04:19:04;25.90;57.80
34640;DHT22;22600;48.186;11.526;2022-07-22T04:21:29;25.90;57.80
34640;DHT22;22600;48.186;11.526;2022-07-22T04:23:55;25.90;57.80
34640;DHT22;22600;48.186;11.526;2022-07-22T04:26:21;25.90;57.80
34640;DHT22;22600;48.186;11.526;2022-07-22T04:28:47;25.90;57.70
34640;DHT22;22600;48.186;11.526;2022-07-22T04:31:13;25.90;57.70
34640;DHT22;22600;48.186;11.526;2022-07-22T04:33:39;25.90;57.70
34640;DHT22;22600;48.186;11.526;2022-07-22T04:36:04;25.90;57.70
34640;DHT22;22600;48.186;11.526;2022-07-22T04:38:30;25.90;57.70
34640;DHT22;22600;48.186;11.526;2022-07-22T04:40:56;25.90;57.80
34640;DHT22;22600;48.186;11.526;2022-07-22T04:43:21;25.90;57.80
34640;DHT22;22600;48.186;11.526;2022-07-22T04:45:47;25.90;57.80
34640;DHT22;22600;48.186;11.526;2022-07-22T04:48:13;26.00;57.90
34640;DHT22;22600;48.186;11.526;2022-07-22T04:50:38;26.00;57.90
34640;DHT22;22600;48.186;11.526;2022-07-22T04:53:04;25.90;57.80
34640;DHT22;22600;48.186;11.526;2022-07-22T04:55:30;26.00;58.00
34640;DHT22;22600;48.186;11.526;2022-07-22T04:57:56;26.00;58.60
34640;DHT22;22600;48.186;11.526;2022-07-22T05:00:22;26.00;58.00
34640;DHT22;22600;48.186;11.526;2022-07-22T05:02:48;26.00;58.00
34640;DHT22;22600;48.186;11.526;2022-07-22T05:05:13;26.00;58.20
34640;DHT22;22600;48.186;11.526;2022-07-22T05:07:39;26.00;58.20
34640;DHT22;22600;48.186;11.526;2022-07-22T05:10:05;26.00;58.20
34640;DHT22;22600;48.186;11.526;2022-07-22T05:12:30;26.00;58.20
34640;DHT22;22600;48.186;11.526;2022-07-22T05:14:56;25.80;58.20
34640;DHT22;22600;48.186;11.526;2022-07-22T05:17:22;26.10;58.40
34640;DHT22;22600;48.186;11.526;2022-07-22T05:19:48;26.00;58.40
34640;DHT22;22600;48.186;11.526;2022-07-22T05:22:13;26.10;58.40
34640;DHT22;22600;48.186;11.526;2022-07-22T05:24:39;26.10;58.50
34640;DHT22;22600;48.186;11.526;2022-07-22T05:27:04;26.10;58.50
34640;DHT22;22600;48.186;11.526;2022-07-22T05:29:30;26.10;58.10
34640;DHT22;22600;48.186;11.526;2022-07-22T05:31:56;26.10;58.60
34640;DHT22;22600;48.186;11.526;2022-07-22T05:34:21;26.10;58.70
34640;DHT22;22600;48.186;11.526;2022-07-22T05:36:47;26.20;58.70
34640;DHT22;22600;48.186;11.526;2022-07-22T05:39:13;26.20;58.70
34640;DHT22;22600;48.186;11.526;2022-07-22T05:41:38;26.10;58.60
34640;DHT22;22600;48.186;11.526;2022-07-22T05:44:04;26.20;58.50
34640;DHT22;22600;48.186;11.526;2022-07-22T05:46:30;26.30;58.50
34640;DHT22;22600;48.186;11.526;2022-07-22T05:48:55;26.20;58.30
34640;DHT22;22600;48.186;11.526;2022-07-22T05:51:21;26.30;58.30
34640;DHT22;22600;48.186;11.526;2022-07-22T05:53:47;26.30;59.00
34640;DHT22;22600;48.186;11.526;2022-07-22T05:56:13;26.20;58.70
34640;DHT22;22600;48.186;11.526;2022-07-22T05:58:40;26.30;58.60
34640;DHT22;22600;48.186;11.526;2022-07-22T06:01:07;26.30;58.60
34640;DHT22;22600;48.186;11.526;2022-07-22T06:03:32;26.30;58.40
34640;DHT22;22600;48.186;11.526;2022-07-22T06:05:58;26.40;58.60
34640;DHT22;22600;48.186;11.526;2022-07-22T06:08:26;26.40;58.70
34640;DHT22;22600;48.186;11.526;2022-07-22T06:10:52;26.40;58.70
34640;DHT22;22600;48.186;11.526;2022-07-22T06:13:18;26.40;58.70
34640;DHT22;22600;48.186;11.526;2022-07-22T06:15:43;26.40;58.70
34640;DHT22;22600;48.186;11.526;2022-07-22T06:18:10;26.40;58.70
34640;DHT22;22600;48.186;11.526;2022-07-22T06:20:35;26.40;58.70
34640;DHT22;22600;48.186;11.526;2022-07-22T06:23:01;26.40;58.60
34640;DHT22;22600;48.186;11.526;2022-07-22T06:25:27;26.40;58.70
34640;DHT22;22600;48.186;11.526;2022-07-22T06:27:53;26.50;58.80
34640;DHT22;22600;48.186;11.526;2022-07-22T06:30:18;26.50;58.80
34640;DHT22;22600;48.186;11.526;2022-07-22T06:32:45;26.50;58.80
34640;DHT22;22600;48.186;11.526;2022-07-22T06:35:11;26.50;58.80
34640;DHT22;22600;48.186;11.526;2022-07-22T06:37:36;26.40;58.70
34640;DHT22;22600;48.186;11.526;2022-07-22T06:40:03;26.50;58.80
34640;DHT22;22600;48.186;11.526;2022-07-22T06:42:29;26.50;58.80
34640;DHT22;22600;48.186;11.526;2022-07-22T06:44:54;26.50;58.80
34640;DHT22;22600;48.186;11.526;2022-07-22T06:47:20;26.40;58.70
34640;DHT22;22600;48.186;11.526;2022-07-22T06:49:45;26.40;58.60
34640;DHT22;22600;48.186;11.526;2022-07-22T06:52:11;26.50;58.70
34640;DHT22;22600;48.186;11.526;2022-07-22T06:54:36;26.50;58.70
34640;DHT22;22600;48.186;11.526;2022-07-22T06:57:02;26.50;58.70
34640;DHT22;22600;48.186;11.526;2022-07-22T06:59:27;26.50;58.60
34640;DHT22;22600;48.186;11.526;2022-07-22T07:01:53;26.50;58.60
34640;DHT22;22600;48.186;11.526;2022-07-22T07:04:18;26.50;58.60
34640;DHT22;22600;48.186;11.526;2022-07-22T07:06:44;26.60;58.70
34640;DHT22;22600;48.186;11.526;2022-07-22T07:09:10;26.50;58.60
34640;DHT22;22600;48.186;11.526;2022-07-22T07:11:36;26.60;58.60
34640;DHT22;22600;48.186;11.526;2022-07-22T07:14:01;26.50;58.50
34640;DHT22;22600;48.186;11.526;2022-07-22T07:16:27;26.60;58.50
34640;DHT22;22600;48.186;11.526;2022-07-22T07:18:53;26.60;58.50
34640;DHT22;22600;48.186;11.526;2022-07-22T07:21:18;26.60;58.50
34640;DHT22;22600;48.186;11.526;2022-07-22T07:23:44;26.60;58.40
34640;DHT22;22600;48.186;11.526;2022-07-22T07:26:10;26.60;58.40
34640;DHT22;22600;48.186;11.526;2022-07-22T07:28:35;26.60;58.30
34640;DHT22;22600;48.186;11.526;2022-07-22T07:31:01;26.60;58.30
34640;DHT22;22600;48.186;11.526;2022-07-22T07:33:27;26.50;58.30
34640;DHT22;22600;48.186;11.526;2022-07-22T07:35:52;26.60;58.30
34640;DHT22;22600;48.186;11.526;2022-07-22T07:38:18;26.60;58.30
34640;DHT22;22600;48.186;11.526;2022-07-22T07:40:44;26.50;58.20
34640;DHT22;22600;48.186;11.526;2022-07-22T07:43:09;26.60;58.30
34640;DHT22;22600;48.186;11.526;2022-07-22T07:45:35;26.60;58.20
34640;DHT22;22600;48.186;11.526;2022-07-22T07:48:02;26.60;58.10
34640;DHT22;22600;48.186;11.526;2022-07-22T07:50:28;26.60;58.10
34640;DHT22;22600;48.186;11.526;2022-07-22T07:52:55;26.60;58.00
34640;DHT22;22600;48.186;11.526;2022-07-22T07:55:21;26.60;57.90
34640;DHT22;22600;48.186;11.526;2022-07-22T07:57:47;26.60;57.80
34640;DHT22;22600;48.186;11.526;2022-07-22T08:00:14;26.60;57.80
34640;DHT22;22600;48.186;11.526;2022-07-22T08:02:40;26.60;57.80
34640;DHT22;22600;48.186;11.526;2022-07-22T08:05:07;26.60;57.70
34640;DHT22;22600;48.186;11.526;2022-07-22T08:07:33;26.60;57.50
34640;DHT22;22600;48.186;11.526;2022-07-22T08:09:59;26.60;57.40
34640;DHT22;22600;48.186;11.526;2022-07-22T08:12:24;26.60;57.30
34640;DHT22;22600;48.186;11.526;2022-07-22T08:14:50;26.60;57.30
34640;DHT22;22600;48.186;11.526;2022-07-22T08:17:15;26.60;57.20
34640;DHT22;22600;48.186;11.526;2022-07-22T08:19:41;26.70;57.30
34640;DHT22;22600;48.186;11.526;2022-07-22T08:22:06;26.60;57.10
34640;DHT22;22600;48.186;11.526;2022-07-22T08:24:32;26.60;57.00
34640;DHT22;22600;48.186;11.526;2022-07-22T08:26:58;26.60;56.90
34640;DHT22;22600;48.186;11.526;2022-07-22T08:29:23;26.60;56.40
34640;DHT22;22600;48.186;11.526;2022-07-22T08:31:49;26.60;56.90
34640;DHT22;22600;48.186;11.526;2022-07-22T08:34:14;26.60;56.80
34640;DHT22;22600;48.186;11.526;2022-07-22T08:36:40;26.60;56.70
34640;DHT22;22600;48.186;11.526;2022-07-22T08:39:05;26.60;56.70
34640;DHT22;22600;48.186;11.526;2022-07-22T08:41:36;26.60;56.70
34640;DHT22;22600;48.186;11.526;2022-07-22T08:44:03;26.70;56.60
34640;DHT22;22600;48.186;11.526;2022-07-22T08:46:29;26.60;56.50
34640;DHT22;22600;48.186;11.526;2022-07-22T08:48:56;26.60;56.50
34640;DHT22;22600;48.186;11.526;2022-07-22T08:51:21;26.60;56.50
34640;DHT22;22600;48.186;11.526;2022-07-22T08:53:47;26.60;56.40
34640;DHT22;22600;48.186;11.526;2022-07-22T08:56:13;26.60;56.50
34640;DHT22;22600;48.186;11.526;2022-07-22T08:58:40;26.60;56.40
34640;DHT22;22600;48.186;11.526;2022-07-22T09:01:08;26.60;56.30
34640;DHT22;22600;48.186;11.526;2022-07-22T09:03:53;26.60;56.30
34640;DHT22;22600;48.186;11.526;2022-07-22T09:06:22;26.60;56.20
34640;DHT22;22600;48.186;11.526;2022-07-22T09:08:58;26.60;56.20
34640;DHT22;22600;48.186;11.526;2022-07-22T09:11:27;26.60;56.10
34640;DHT22;22600;48.186;11.526;2022-07-22T09:13:58;26.60;56.00
34640;DHT22;22600;48.186;11.526;2022-07-22T09:19:07;26.60;55.80
34640;DHT22;22600;48.186;11.526;2022-07-22T09:21:35;26.60;55.80
34640;DHT22;22600;48.186;11.526;2022-07-22T09:24:03;26.50;55.80
34640;DHT22;22600;48.186;11.526;2022-07-22T09:26:34;26.50;55.80
34640;DHT22;22600;48.186;11.526;2022-07-22T09:29:01;26.50;55.80
34640;DHT22;22600;48.186;11.526;2022-07-22T09:31:33;26.50;55.80
34640;DHT22;22600;48.186;11.526;2022-07-22T09:33:59;26.50;55.80
34640;DHT22;22600;48.186;11.526;2022-07-22T09:36:25;26.50;55.90
34640;DHT22;22600;48.186;11.526;2022-07-22T09:38:51;28.80;57.30
34640;DHT22;22600;48.186;11.526;2022-07-22T09:41:16;26.40;55.80
34640;DHT22;22600;48.186;11.526;2022-07-22T09:43:42;26.50;55.90
34640;DHT22;22600;48.186;11.526;2022-07-22T09:46:08;26.40;55.80
34640;DHT22;22600;48.186;11.526;2022-07-22T09:48:36;26.40;55.80
34640;DHT22;22600;48.186;11.526;2022-07-22T09:51:02;26.40;55.80
34640;DHT22;22600;48.186;11.526;2022-07-22T09:53:29;26.40;55.80
34640;DHT22;22600;48.186;11.526;2022-07-22T09:55:59;26.50;56.40
34640;DHT22;22600;48.186;11.526;2022-07-22T09:58:25;26.40;55.70
34640;DHT22;22600;48.186;11.526;2022-07-22T10:00:52;26.40;55.70
34640;DHT22;22600;48.186;11.526;2022-07-22T10:03:29;26.40;55.80
34640;DHT22;22600;48.186;11.526;2022-07-22T10:05:56;26.40;55.80
34640;DHT22;22600;48.186;11.526;2022-07-22T10:08:22;26.40;55.80
34640;DHT22;22600;48.186;11.526;2022-07-22T10:10:50;26.40;55.80
34640;DHT22;22600;48.186;11.526;2022-07-22T10:13:17;26.30;55.70
34640;DHT22;22600;48.186;11.526;2022-07-22T10:15:44;26.40;55.90
34640;DHT22;22600;48.186;11.526;2022-07-22T10:18:16;26.30;55.80
34640;DHT22;22600;48.186;11.526;2022-07-22T10:20:42;26.30;55.80
34640;DHT22;22600;48.186;11.526;2022-07-22T10:23:09;26.30;55.80
34640;DHT22;22600;48.186;11.526;2022-07-22T10:25:53;26.30;55.80
34640;DHT22;22600;48.186;11.526;2022-07-22T10:28:30;26.30;55.80
34640;DHT22;22600;48.186;11.526;2022-07-22T10:33:41;26.30;55.80
34640;DHT22;22600;48.186;11.526;2022-07-22T10:36:06;26.30;55.80
34640;DHT22;22600;48.186;11.526;2022-07-22T10:38:33;26.30;55.70
34640;DHT22;22600;48.186;11.526;2022-07-22T10:41:01;26.30;55.70
34640;DHT22;22600;48.186;11.526;2022-07-22T10:46:08;26.30;55.70
34640;DHT22;22600;48.186;11.526;2022-07-22T10:53:42;26.20;56.20
34640;DHT22;22600;48.186;11.526;2022-07-22T10:56:27;26.20;56.90
34640;DHT22;22600;48.186;11.526;2022-07-22T10:58:58;26.20;58.20
34640;DHT22;22600;48.186;11.526;2022-07-22T11:01:26;26.30;59.20
34640;DHT22;22600;48.186;11.526;2022-07-22T11:03:53;26.20;59.30
34640;DHT22;22600;48.186;11.526;2022-07-22T11:06:25;26.20;59.50
34640;DHT22;22600;48.186;11.526;2022-07-22T11:11:35;26.20;58.50
34640;DHT22;22600;48.186;11.526;2022-07-22T11:14:03;26.30;58.50
34640;DHT22;22600;48.186;11.526;2022-07-22T11:16:35;26.20;58.30
34640;DHT22;22600;48.186;11.526;2022-07-22T11:19:02;26.30;58.10
34640;DHT22;22600;48.186;11.526;2022-07-22T11:21:31;26.30;58.10
34640;DHT22;22600;48.186;11.526;2022-07-22T11:23:59;26.20;58.00
34640;DHT22;22600;48.186;11.526;2022-07-22T11:26:42;26.20;58.10
34640;DHT22;22600;48.186;11.526;2022-07-22T11:29:09;26.20;57.80
34640;DHT22;22600;48.186;11.526;2022-07-22T11:31:36;26.20;57.60
34640;DHT22;22600;48.186;11.526;2022-07-22T11:34:10;26.20;57.50
34640;DHT22;22600;48.186;11.526;2022-07-22T11:36:39;26.20;57.40
34640;DHT22;22600;48.186;11.526;2022-07-22T11:39:05;26.20;58.10
34640;DHT22;22600;48.186;11.526;2022-07-22T11:41:32;26.30;58.20
34640;DHT22;22600;48.186;11.526;2022-07-22T11:43:58;26.20;58.50
34640;DHT22;22600;48.186;11.526;2022-07-22T11:46:25;26.20;58.10
34640;DHT22;22600;48.186;11.526;2022-07-22T11:48:53;26.20;57.80
34640;DHT22;22600;48.186;11.526;2022-07-22T11:51:19;26.20;58.30
34640;DHT22;22600;48.186;11.526;2022-07-22T11:53:44;26.20;58.50
34640;DHT22;22600;48.186;11.526;2022-07-22T11:56:11;26.20;58.50
34640;DHT22;22600;48.186;11.526;2022-07-22T11:58:41;26.20;58.60
34640;DHT22;22600;48.186;11.526;2022-07-22T12:01:13;26.20;58.60
34640;DHT22;22600;48.186;11.526;2022-07-22T12:03:42;26.20;58.60
34640;DHT22;22600;48.186;11.526;2022-07-22T12:06:12;26.20;58.70
34640;DHT22;22600;48.186;11.526;2022-07-22T12:09:22;26.20;58.80
34640;DHT22;22600;48.186;11.526;2022-07-22T12:11:49;26.20;58.90
34640;DHT22;22600;48.186;11.526;2022-07-22T12:14:19;26.20;59.00
34640;DHT22;22600;48.186;11.526;2022-07-22T12:16:58;26.20;59.10
34640;DHT22;22600;48.186;11.526;2022-07-22T12:19:25;26.20;59.30
34640;DHT22;22600;48.186;11.526;2022-07-22T12:22:12;26.20;59.50
34640;DHT22;22600;48.186;11.526;2022-07-22T12:24:44;26.20;59.60
34640;DHT22;22600;48.186;11.526;2022-07-22T12:27:16;26.30;59.70
34640;DHT22;22600;48.186;11.526;2022-07-22T12:29:44;26.30;59.70
34640;DHT22;22600;48.186;11.526;2022-07-22T12:32:16;26.20;59.70
34640;DHT22;22600;48.186;11.526;2022-07-22T12:34:45;26.30;59.80
34640;DHT22;22600;48.186;11.526;2022-07-22T12:37:22;26.30;59.90
34640;DHT22;22600;48.186;11.526;2022-07-22T12:39:59;26.30;59.90
34640;DHT22;22600;48.186;11.526;2022-07-22T12:42:46;26.30;60.00
34640;DHT22;22600;48.186;11.526;2022-07-22T12:45:17;26.30;60.10
34640;DHT22;22600;48.186;11.526;2022-07-22T12:50:19;26.30;60.20
34640;DHT22;22600;48.186;11.526;2022-07-22T12:52:46;26.30;60.10
34640;DHT22;22600;48.186;11.526;2022-07-22T12:55:11;26.40;60.20
34640;DHT22;22600;48.186;11.526;2022-07-22T12:57:38;26.40;60.30
34640;DHT22;22600;48.186;11.526;2022-07-22T13:00:04;26.30;60.30
34640;DHT22;22600;48.186;11.526;2022-07-22T13:02:29;26.40;60.40
34640;DHT22;22600;48.186;11.526;2022-07-22T13:04:55;26.40;60.50
34640;DHT22;22600;48.186;11.526;2022-07-22T13:07:21;26.40;60.50
34640;DHT22;22600;48.186;11.526;2022-07-22T13:09:46;26.40;60.60
34640;DHT22;22600;48.186;11.526;2022-07-22T13:12:12;26.40;60.70
34640;DHT22;22600;48.186;11.526;2022-07-22T13:14:37;26.40;60.70
34640;DHT22;22600;48.186;11.526;2022-07-22T13:17:03;26.40;60.60
34640;DHT22;22600;48.186;11.526;2022-07-22T13:19:29;26.40;60.70
34640;DHT22;22600;48.186;11.526;2022-07-22T13:21:55;26.40;60.80
34640;DHT22;22600;48.186;11.526;2022-07-22T13:24:20;26.40;60.90
34640;DHT22;22600;48.186;11.526;2022-07-22T13:26:46;26.40;60.90
34640;DHT22;22600;48.186;11.526;2022-07-22T13:29:12;25.40;60.10
34640;DHT22;22600;48.186;11.526;2022-07-22T13:31:38;26.40;61.70
34640;DHT22;22600;48.186;11.526;2022-07-22T13:34:03;26.40;60.90
34640;DHT22;22600;48.186;11.526;2022-07-22T13:36:29;26.40;60.80
34640;DHT22;22600;48.186;11.526;2022-07-22T13:38:58;26.50;60.90
34640;DHT22;22600;48.186;11.526;2022-07-22T13:41:23;26.50;60.90
34640;DHT22;22600;48.186;11.526;2022-07-22T13:43:49;26.50;61.00
34640;DHT22;22600;48.186;11.526;2022-07-22T13:46:16;26.50;61.00
34640;DHT22;22600;48.186;11.526;2022-07-22T13:48:42;26.50;61.10
34640;DHT22;22600;48.186;11.526;2022-07-22T13:51:08;26.50;61.10
34640;DHT22;22600;48.186;11.526;2022-07-22T13:53:34;26.50;61.20
34640;DHT22;22600;48.186;11.526;2022-07-22T13:56:00;26.50;61.30
34640;DHT22;22600;48.186;11.526;2022-07-22T13:58:26;26.50;61.30
34640;DHT22;22600;48.186;11.526;2022-07-22T14:00:51;26.50;61.40
34640;DHT22;22600;48.186;11.526;2022-07-22T14:03:17;26.50;61.40
34640;DHT22;22600;48.186;11.526;2022-07-22T14:05:44;26.50;61.50
34640;DHT22;22600;48.186;11.526;2022-07-22T14:08:10;26.50;61.50
34640;DHT22;22600;48.186;11.526;2022-07-22T14:10:35;26.50;61.50
34640;DHT22;22600;48.186;11.526;2022-07-22T14:13:01;26.50;61.50
34640;DHT22;22600;48.186;11.526;2022-07-22T14:15:27;26.50;61.50
34640;DHT22;22600;48.186;11.526;2022-07-22T14:17:52;26.50;61.40
34640;DHT22;22600;48.186;11.526;2022-07-22T14:20:18;26.50;61.40
34640;DHT22;22600;48.186;11.526;2022-07-22T14:22:44;26.50;61.40
34640;DHT22;22600;48.186;11.526;2022-07-22T14:25:09;26.50;61.30
34640;DHT22;22600;48.186;11.526;2022-07-22T14:27:35;26.50;61.20
34640;DHT22;22600;48.186;11.526;2022-07-22T14:30:00;26.50;61.10
34640;DHT22;22600;48.186;11.526;2022-07-22T14:32:26;26.50;61.10
34640;DHT22;22600;48.186;11.526;2022-07-22T14:34:52;26.40;60.90
34640;DHT22;22600;48.186;11.526;2022-07-22T14:37:17;26.40;60.90
34640;DHT22;22600;48.186;11.526;2022-07-22T14:39:43;26.40;60.80
34640;DHT22;22600;48.186;11.526;2022-07-22T14:42:09;26.40;60.90
34640;DHT22;22600;48.186;11.526;2022-07-22T14:44:35;26.40;60.80
34640;DHT22;22600;48.186;11.526;2022-07-22T14:47:00;26.40;60.80
34640;DHT22;22600;48.186;11.526;2022-07-22T14:49:27;26.40;60.80
34640;DHT22;22600;48.186;11.526;2022-07-22T14:51:53;26.40;60.80
34640;DHT22;22600;48.186;11.526;2022-07-22T14:54:18;26.40;60.80
34640;DHT22;22600;48.186;11.526;2022-07-22T14:56:44;26.40;60.80
34640;DHT22;22600;48.186;11.526;2022-07-22T14:59:10;26.40;60.80
34640;DHT22;22600;48.186;11.526;2022-07-22T15:01:35;26.40;60.80
34640;DHT22;22600;48.186;11.526;2022-07-22T15:04:01;26.40;60.80
34640;DHT22;22600;48.186;11.526;2022-07-22T15:06:26;26.40;60.80
34640;DHT22;22600;48.186;11.526;2022-07-22T15:08:52;26.40;60.80
34640;DHT22;22600;48.186;11.526;2022-07-22T15:11:18;26.40;60.80
34640;DHT22;22600;48.186;11.526;2022-07-22T15:13:43;26.40;60.80
34640;DHT22;22600;48.186;11.526;2022-07-22T15:16:09;26.40;60.70
34640;DHT22;22600;48.186;11.526;2022-07-22T15:18:36;26.30;60.70
34640;DHT22;22600;48.186;11.526;2022-07-22T15:21:01;26.40;60.70
34640;DHT22;22600;48.186;11.526;2022-07-22T15:23:27;26.40;60.70
34640;DHT22;22600;48.186;11.526;2022-07-22T15:25:57;26.30;60.60
34640;DHT22;22600;48.186;11.526;2022-07-22T15:28:24;26.30;60.60
34640;DHT22;22600;48.186;11.526;2022-07-22T15:30:49;26.30;60.60